createdAt,value
2019-01-19T00:01:40.510Z,85.53
2019-01-19T00:07:59.040Z,85.22
2019-01-19T00:14:14.121Z,85.85
2019-01-19T00:20:47.846Z,86.22
2019-01-19T00:27:17.887Z,85.75
2019-01-19T00:33:41.701Z,85.70
2019-01-19T00:40:28.657Z,85.31
2019-01-19T00:46:52.507Z,86.18
2019-01-19T00:53:10.821Z,86.19
2019-01-19T00:59:21.748Z,85.75
2019-01-19T01:05:31.048Z,86.26
2019-01-19T01:11:42.992Z,85.99
2019-01-19T01:17:51.764Z,85.97
2019-01-19T01:24:21.966Z,85.51
2019-01-19T01:30:50.935Z,85.93
2019-01-19T01:37:00.190Z,86.09
2019-01-19T01:43:31.347Z,85.96
2019-01-19T01:49:58.383Z,86.16
2019-01-19T01:56:03.401Z,86.59
2019-01-19T02:02:27.106Z,87.17
2019-01-19T02:08:42.125Z,86.84
2019-01-19T02:15:10.662Z,86.82
2019-01-19T02:21:25.354Z,86.94
2019-01-19T02:27:56.945Z,87.00
2019-01-19T02:34:17.923Z,87.06
2019-01-19T02:40:30.011Z,86.82
2019-01-19T02:47:00.347Z,87.38
2019-01-19T02:53:20.925Z,87.60
2019-01-19T02:59:30.186Z,87.83
2019-01-19T03:05:45.712Z,87.26
2019-01-19T03:12:28.171Z,87.30
2019-01-19T03:18:46.145Z,87.92
2019-01-19T03:25:17.716Z,88.01
2019-01-19T03:31:35.910Z,88.14
2019-01-19T03:38:12.056Z,87.76
2019-01-19T03:44:35.875Z,88.01
2019-01-19T03:50:59.969Z,87.43
2019-01-19T03:57:26.988Z,86.84
2019-01-19T04:04:07.847Z,86.78
2019-01-19T04:10:34.605Z,86.85
2019-01-19T04:16:49.667Z,86.77
2019-01-19T04:22:54.621Z,86.47
2019-01-19T04:29:01.452Z,86.94
2019-01-19T04:35:07.372Z,86.28
2019-01-19T04:41:12.000Z,86.09
2019-01-19T04:47:16.614Z,86.24
2019-01-19T04:53:21.202Z,86.39
2019-01-19T04:59:25.752Z,86.33
2019-01-19T05:05:30.289Z,86.29
2019-01-19T05:11:35.590Z,86.23
2019-01-19T05:17:40.300Z,86.29
2019-01-19T05:23:44.959Z,86.55
2019-01-19T05:29:49.512Z,86.53
2019-01-19T05:35:54.081Z,86.18
2019-01-19T05:41:58.847Z,86.59
2019-01-19T05:48:03.560Z,86.54
2019-01-19T05:54:08.153Z,86.69
2019-01-19T06:00:21.188Z,86.31
2019-01-19T06:06:26.144Z,86.65
2019-01-19T06:12:30.942Z,85.86
2019-01-19T06:18:36.735Z,86.37
2019-01-19T06:24:41.508Z,86.30
2019-01-19T06:30:46.187Z,86.35
2019-01-19T06:36:55.097Z,86.67
2019-01-19T06:42:57.172Z,86.91
2019-01-19T06:49:01.864Z,86.96
2019-01-19T06:55:11.335Z,86.76
2019-01-19T07:01:15.970Z,86.87
2019-01-19T07:07:21.928Z,86.61
2019-01-19T07:13:26.651Z,87.52
2019-01-19T07:19:31.267Z,86.98
2019-01-19T07:25:35.891Z,87.01
2019-01-19T07:31:40.583Z,87.02
2019-01-19T07:37:45.233Z,87.21
2019-01-19T07:43:49.852Z,87.13
2019-01-19T07:49:56.247Z,87.14
2019-01-19T07:56:00.922Z,87.29
2019-01-19T08:02:05.661Z,86.52
2019-01-19T08:08:11.777Z,86.07
2019-01-19T08:14:16.434Z,85.87
2019-01-19T08:20:21.230Z,85.22
2019-01-19T08:26:25.778Z,85.36
2019-01-19T08:32:30.422Z,84.49
2019-01-19T08:38:35.204Z,84.79
2019-01-19T08:44:39.917Z,84.03
2019-01-19T08:50:44.578Z,84.19
2019-01-19T08:56:49.165Z,83.82
2019-01-19T09:02:54.999Z,83.21
2019-01-19T09:08:59.608Z,83.36
2019-01-19T09:15:06.371Z,83.13
2019-01-19T09:21:11.095Z,82.17
2019-01-19T09:27:17.110Z,81.92
2019-01-19T09:33:21.730Z,81.53
2019-01-19T09:39:26.328Z,81.01
2019-01-19T09:45:32.566Z,81.46
2019-01-19T09:51:37.267Z,81.48
2019-01-19T09:57:42.077Z,80.87
2019-01-19T10:03:46.734Z,79.56
2019-01-19T10:09:51.456Z,78.85
2019-01-19T10:15:56.100Z,77.90
2019-01-19T10:22:00.976Z,76.72
2019-01-19T10:28:06.259Z,75.95
2019-01-19T10:34:12.433Z,75.13
2019-01-19T10:40:18.840Z,75.11
2019-01-19T10:46:23.416Z,74.44
2019-01-19T10:52:28.228Z,74.60
2019-01-19T10:58:34.050Z,74.16
2019-01-19T11:04:38.953Z,74.02
2019-01-19T11:10:43.839Z,74.05
2019-01-19T11:16:48.536Z,74.11
2019-01-19T11:22:53.421Z,73.43
2019-01-19T11:28:57.969Z,72.84
2019-01-19T11:35:02.587Z,72.99
2019-01-19T11:41:07.377Z,71.63
2019-01-19T11:47:12.082Z,71.61
2019-01-19T11:53:16.749Z,70.09
2019-01-19T11:59:21.301Z,69.91
2019-01-19T12:05:26.075Z,69.22
2019-01-19T12:11:32.719Z,68.91
2019-01-19T12:17:37.528Z,69.26
2019-01-19T12:23:42.357Z,68.04
2019-01-19T12:29:46.969Z,68.07
2019-01-19T12:35:51.557Z,68.45
2019-01-19T12:41:56.183Z,67.52
2019-01-19T12:48:00.899Z,66.50
2019-01-19T12:54:06.704Z,65.60
2019-01-19T13:00:24.553Z,65.82
2019-01-19T13:06:36.769Z,65.06
2019-01-19T13:12:41.614Z,63.42
2019-01-19T13:18:56.687Z,63.11
2019-01-19T13:25:24.658Z,63.36
2019-01-19T13:31:57.595Z,63.78
2019-01-19T13:38:24.490Z,61.74
2019-01-19T13:44:51.615Z,63.10
2019-01-19T13:51:21.777Z,64.95
2019-01-19T13:57:32.320Z,64.78
2019-01-19T14:03:44.441Z,64.76
2019-01-19T14:10:16.173Z,61.57
2019-01-19T14:17:11.841Z,62.53
2019-01-19T14:23:32.751Z,63.38
2019-01-19T14:29:56.071Z,62.93
2019-01-19T14:36:56.136Z,62.91
2019-01-19T14:43:35.245Z,62.87
2019-01-19T14:50:16.799Z,63.66
2019-01-19T14:56:50.869Z,64.31
2019-01-19T15:03:24.577Z,65.64
2019-01-19T15:09:36.281Z,65.74
2019-01-19T15:16:03.557Z,66.62
2019-01-19T15:22:49.841Z,68.18
2019-01-19T15:29:38.934Z,68.72
2019-01-19T15:35:56.968Z,69.67
2019-01-19T15:42:35.818Z,70.50
2019-01-19T15:48:59.480Z,71.31
2019-01-19T15:55:14.429Z,72.50
2019-01-19T16:02:00.400Z,72.73
2019-01-19T16:08:36.242Z,73.32
2019-01-19T16:15:16.552Z,73.82
2019-01-19T16:21:40.285Z,74.24
2019-01-19T16:28:23.466Z,74.69
2019-01-19T16:34:56.463Z,75.35
2019-01-19T16:41:44.547Z,75.35
2019-01-19T16:48:08.368Z,75.84
2019-01-19T16:54:26.314Z,75.77
2019-01-19T17:00:51.914Z,75.61
2019-01-19T17:07:07.074Z,76.11
2019-01-19T17:13:51.966Z,75.72
2019-01-19T17:20:16.069Z,76.18
2019-01-19T17:26:37.366Z,76.91
2019-01-19T17:33:11.856Z,76.91
2019-01-19T17:39:44.739Z,77.69
2019-01-19T17:46:05.756Z,77.49
2019-01-19T17:52:40.601Z,77.61
2019-01-19T17:58:58.336Z,77.72
2019-01-19T18:05:16.209Z,77.93
2019-01-19T18:11:59.000Z,77.47
2019-01-19T18:18:28.427Z,77.86
2019-01-19T18:24:51.717Z,77.88
2019-01-19T18:31:39.874Z,78.48
2019-01-19T18:37:54.805Z,78.62
2019-01-19T18:44:06.618Z,78.60
2019-01-19T18:50:48.324Z,78.27
2019-01-19T18:57:23.857Z,78.63
2019-01-19T19:03:51.249Z,78.17
2019-01-19T19:10:21.372Z,78.27
2019-01-19T19:16:36.467Z,78.44
2019-01-19T19:22:57.562Z,78.81
2019-01-19T19:29:27.675Z,78.75
2019-01-19T19:36:00.786Z,78.66
2019-01-19T19:42:27.925Z,79.42
2019-01-19T19:48:43.116Z,79.01
2019-01-19T19:54:54.818Z,79.05
2019-01-19T20:00:59.695Z,79.20
2019-01-19T20:07:04.594Z,79.50
2019-01-19T20:13:09.452Z,80.08
2019-01-19T20:19:14.002Z,80.37
2019-01-19T20:25:18.603Z,80.72
2019-01-19T20:31:23.189Z,80.78
2019-01-19T20:37:27.867Z,80.39
2019-01-19T20:43:33.830Z,80.73
2019-01-19T20:49:38.539Z,80.92
2019-01-19T20:55:43.160Z,80.91
2019-01-19T21:01:47.716Z,81.44
2019-01-19T21:07:52.272Z,81.48
2019-01-19T21:13:56.845Z,81.20
2019-01-19T21:20:01.379Z,81.95
2019-01-19T21:26:06.016Z,81.52
2019-01-19T21:32:10.588Z,81.76
2019-01-19T21:38:15.170Z,82.05
2019-01-19T21:44:19.742Z,81.64
2019-01-19T21:50:25.765Z,81.32
2019-01-19T21:56:30.295Z,81.84
2019-01-19T22:02:34.853Z,81.85
2019-01-19T22:08:39.418Z,81.89
2019-01-19T22:14:44.193Z,82.20
2019-01-19T22:20:48.754Z,82.32
2019-01-19T22:27:00.167Z,82.59
2019-01-19T22:33:05.055Z,83.05
2019-01-19T22:39:09.684Z,82.18
2019-01-19T22:45:16.546Z,82.70
2019-01-19T22:51:21.154Z,83.40
2019-01-19T22:57:25.775Z,83.98
2019-01-19T23:03:32.876Z,83.35
2019-01-19T23:09:37.715Z,83.78
2019-01-19T23:15:42.320Z,83.10
2019-01-19T23:21:46.892Z,83.48
2019-01-19T23:27:51.421Z,84.10
2019-01-19T23:33:56.043Z,85.07
2019-01-19T23:40:01.815Z,83.84
2019-01-19T23:46:07.771Z,83.66
2019-01-19T23:52:12.308Z,83.86
2019-01-19T23:58:16.852Z,83.66
